createdAt,value
2022-08-10T00:00:23.148Z,44.23
2022-08-10T00:02:24.893Z,44.32
2022-08-10T00:04:26.633Z,44.22
2022-08-10T00:06:28.859Z,44.42
2022-08-10T00:08:31.192Z,44.30
2022-08-10T00:10:33.415Z,44.37
2022-08-10T00:12:53.513Z,44.40
2022-08-10T00:14:56.587Z,44.18
2022-08-10T00:16:58.280Z,44.57
2022-08-10T00:18:59.979Z,44.21
2022-08-10T00:21:01.753Z,44.63
2022-08-10T00:23:03.537Z,44.80
2022-08-10T00:25:06.298Z,44.95
2022-08-10T00:27:55.584Z,44.66
2022-08-10T00:29:30.007Z,45.13
2022-08-10T00:31:32.473Z,45.00
2022-08-10T00:33:54.198Z,45.00
2022-08-10T00:35:56.257Z,45.25
2022-08-10T00:37:58.256Z,45.02
2022-08-10T00:40:00.101Z,45.05
2022-08-10T00:42:07.671Z,45.13
2022-08-10T00:44:09.807Z,45.04
2022-08-10T00:46:11.977Z,45.47
2022-08-10T00:48:13.703Z,45.72
2022-08-10T00:50:18.129Z,45.63
2022-08-10T00:52:20.894Z,46.11
2022-08-10T00:54:24.627Z,46.19
2022-08-10T00:56:34.955Z,46.26
2022-08-10T00:58:49.251Z,46.08
2022-08-10T01:00:51.024Z,46.20
2022-08-10T01:02:53.412Z,46.43
2022-08-10T01:05:00.897Z,46.67
2022-08-10T01:07:27.074Z,47.13
2022-08-10T01:09:44.058Z,46.88
2022-08-10T01:12:39.510Z,46.92
2022-08-10T01:14:39.733Z,46.92
2022-08-10T01:16:54.284Z,46.74
2022-08-10T01:19:09.890Z,46.70
2022-08-10T01:21:38.947Z,46.80
2022-08-10T01:23:59.110Z,46.94
2022-08-10T01:26:40.818Z,46.92
2022-08-10T01:29:20.452Z,47.10
2022-08-10T01:31:49.892Z,46.95
2022-08-10T01:33:59.020Z,47.16
2022-08-10T01:36:18.636Z,47.13
2022-08-10T01:38:36.712Z,47.39
2022-08-10T01:40:52.308Z,47.38
2022-08-10T01:42:59.846Z,47.41
2022-08-10T01:45:11.608Z,47.31
2022-08-10T01:47:34.736Z,47.47
2022-08-10T01:49:38.760Z,47.25
2022-08-10T01:51:49.471Z,47.21
2022-08-10T01:53:56.899Z,47.26
2022-08-10T01:55:59.504Z,47.05
2022-08-10T01:58:05.206Z,47.70
2022-08-10T02:00:07.791Z,47.70
2022-08-10T02:02:11.717Z,48.41
2022-08-10T02:04:14.669Z,49.69
2022-08-10T02:06:16.561Z,49.89
2022-08-10T02:08:19.516Z,49.60
2022-08-10T02:10:22.736Z,49.62
2022-08-10T02:12:28.280Z,48.95
2022-08-10T02:14:34.633Z,48.80
2022-08-10T02:16:37.972Z,48.52
2022-08-10T02:18:41.046Z,48.19
2022-08-10T02:20:49.352Z,48.37
2022-08-10T02:22:54.534Z,48.31
2022-08-10T02:24:57.030Z,48.68
2022-08-10T02:26:59.777Z,48.37
2022-08-10T02:29:02.733Z,48.42
2022-08-10T02:31:11.593Z,48.37
2022-08-10T02:33:16.407Z,49.33
2022-08-10T02:35:22.725Z,49.78
2022-08-10T02:37:27.181Z,49.84
2022-08-10T02:39:28.822Z,50.01
2022-08-10T02:45:13.343Z,49.68
2022-08-10T02:45:17.698Z,49.75
2022-08-10T02:46:49.847Z,49.98
2022-08-10T02:49:00.627Z,49.78
2022-08-10T02:51:07.238Z,49.78
2022-08-10T02:53:55.576Z,50.18
2022-08-10T02:55:50.158Z,50.08
2022-08-10T02:58:13.398Z,50.46
2022-08-10T03:00:17.244Z,50.60
2022-08-10T03:02:32.653Z,50.71
2022-08-10T03:04:57.239Z,50.73
2022-08-10T03:07:06.250Z,50.53
2022-08-10T03:09:10.258Z,50.34
2022-08-10T03:11:18.598Z,50.99
2022-08-10T03:13:40.900Z,50.90
2022-08-10T03:15:43.307Z,51.13
2022-08-10T03:17:57.637Z,50.81
2022-08-10T03:20:34.273Z,51.20
2022-08-10T03:22:24.831Z,51.15
2022-08-10T03:24:30.359Z,50.61
2022-08-10T03:26:36.228Z,50.55
2022-08-10T03:28:38.481Z,50.70
2022-08-10T03:30:40.296Z,50.71
2022-08-10T03:32:44.197Z,50.24
2022-08-10T03:34:45.952Z,50.78
2022-08-10T03:36:47.839Z,50.61
2022-08-10T03:38:51.929Z,51.22
2022-08-10T03:40:55.854Z,50.98
2022-08-10T03:42:58.643Z,51.29
2022-08-10T03:45:02.759Z,51.29
2022-08-10T03:47:16.142Z,50.91
2022-08-10T03:49:18.623Z,50.95
2022-08-10T03:51:21.015Z,50.86
2022-08-10T03:53:24.983Z,50.91
2022-08-10T03:56:29.591Z,50.49
2022-08-10T03:58:07.037Z,50.69
2022-08-10T04:00:09.995Z,50.50
2022-08-10T04:02:45.458Z,50.77
2022-08-10T04:04:37.154Z,50.42
2022-08-10T04:06:39.311Z,50.28
2022-08-10T04:08:42.864Z,50.10
2022-08-10T04:10:44.864Z,50.12
2022-08-10T04:12:46.657Z,49.82
2022-08-10T04:14:51.589Z,49.68
2022-08-10T04:16:54.574Z,49.68
2022-08-10T04:18:56.549Z,49.34
2022-08-10T04:23:20.394Z,49.78
2022-08-10T04:25:23.391Z,50.26
2022-08-10T04:27:25.933Z,50.23
2022-08-10T04:29:28.233Z,50.41
2022-08-10T04:31:31.685Z,50.39
2022-08-10T04:33:35.664Z,50.80
2022-08-10T04:35:37.779Z,50.81
2022-08-10T04:37:43.341Z,50.64
2022-08-10T04:39:49.228Z,50.70
2022-08-10T04:41:51.267Z,51.71
2022-08-10T04:43:53.269Z,51.50
2022-08-10T04:45:55.725Z,51.68
2022-08-10T04:48:03.089Z,51.81
2022-08-10T04:50:06.011Z,52.44
2022-08-10T04:52:07.861Z,52.38
2022-08-10T04:54:12.996Z,52.73
2022-08-10T04:56:17.234Z,53.33
2022-08-10T04:58:19.150Z,54.08
2022-08-10T05:00:20.941Z,55.04
2022-08-10T05:02:31.531Z,55.67
2022-08-10T05:04:38.278Z,55.33
2022-08-10T05:06:41.213Z,57.25
2022-08-10T05:08:42.951Z,57.85
2022-08-10T05:10:44.917Z,58.90
2022-08-10T05:12:47.486Z,58.60
2022-08-10T05:14:49.597Z,58.55
2022-08-10T05:16:51.320Z,59.27
2022-08-10T05:18:53.186Z,59.79
2022-08-10T05:20:54.955Z,60.00
2022-08-10T05:22:56.628Z,60.64
2022-08-10T05:24:58.317Z,60.69
2022-08-10T05:27:09.507Z,61.00
2022-08-10T05:29:12.687Z,62.06
2022-08-10T05:31:22.445Z,61.95
2022-08-10T05:33:26.123Z,62.28
2022-08-10T05:35:55.066Z,61.87
2022-08-10T05:38:10.158Z,62.66
2022-08-10T05:40:14.963Z,62.47
2022-08-10T05:42:18.039Z,62.58
2022-08-10T05:44:24.127Z,63.53
2022-08-10T05:46:26.722Z,63.79
2022-08-10T05:48:55.065Z,63.62
2022-08-10T05:50:50.519Z,62.32
2022-08-10T05:52:52.650Z,61.36
2022-08-10T05:54:54.396Z,60.56
2022-08-10T05:56:58.307Z,59.52
2022-08-10T05:59:00.515Z,58.90
2022-08-10T06:01:05.574Z,60.12
2022-08-10T06:03:09.248Z,59.48
2022-08-10T06:05:16.392Z,58.92
2022-08-10T06:07:21.796Z,58.96
2022-08-10T06:09:24.404Z,59.01
2022-08-10T06:12:35.260Z,58.42
2022-08-10T06:14:13.749Z,58.10
2022-08-10T06:16:19.691Z,57.98
2022-08-10T06:18:23.494Z,59.47
2022-08-10T06:20:25.377Z,60.17
2022-08-10T06:22:33.463Z,59.16
2022-08-10T06:25:02.753Z,59.37
2022-08-10T06:27:02.790Z,59.53
2022-08-10T06:29:11.508Z,59.96
2022-08-10T06:31:14.451Z,60.29
2022-08-10T06:33:17.979Z,58.94
2022-08-10T06:35:19.631Z,58.03
2022-08-10T06:37:25.998Z,57.02
2022-08-10T06:39:36.619Z,58.44
2022-08-10T06:42:14.320Z,58.77
2022-08-10T06:44:09.764Z,60.48
2022-08-10T06:46:16.408Z,59.89
2022-08-10T06:48:32.485Z,59.74
2022-08-10T06:50:56.506Z,58.23
2022-08-10T06:53:02.421Z,56.93
2022-08-10T06:55:08.301Z,56.34
2022-08-10T06:57:18.843Z,55.38
2022-08-10T06:59:27.292Z,55.15
2022-08-10T07:01:34.076Z,53.80
2022-08-10T07:03:43.449Z,53.42
2022-08-10T07:05:50.987Z,53.52
2022-08-10T07:07:56.617Z,53.63
2022-08-10T07:10:01.703Z,52.30
2022-08-10T07:12:07.564Z,52.04
2022-08-10T07:14:18.365Z,52.63
2022-08-10T07:16:21.427Z,53.96
2022-08-10T07:18:24.319Z,53.52
2022-08-10T07:20:28.591Z,52.72
2022-08-10T07:23:01.503Z,51.15
2022-08-10T07:24:56.144Z,51.54
2022-08-10T07:26:58.779Z,51.96
2022-08-10T07:29:00.861Z,51.07
2022-08-10T07:31:03.762Z,50.59
2022-08-10T07:33:25.120Z,48.94
2022-08-10T07:35:31.946Z,49.24
2022-08-10T07:37:38.567Z,50.61
2022-08-10T07:39:57.987Z,49.72
2022-08-10T07:42:08.675Z,49.09
2022-08-10T07:44:12.716Z,48.85
2022-08-10T07:46:15.726Z,48.66
2022-08-10T07:48:25.267Z,48.02
2022-08-10T07:50:27.871Z,47.87
2022-08-10T07:52:35.767Z,48.98
2022-08-10T07:54:43.180Z,50.47
2022-08-10T07:56:49.592Z,49.47
2022-08-10T07:58:56.807Z,49.72
2022-08-10T08:00:59.170Z,49.69
2022-08-10T08:03:02.837Z,50.02
2022-08-10T08:05:09.713Z,49.75
2022-08-10T08:07:13.239Z,48.94
2022-08-10T08:09:15.487Z,47.93
2022-08-10T08:11:26.238Z,46.74
2022-08-10T08:13:29.106Z,45.45
2022-08-10T08:16:19.903Z,45.25
2022-08-10T08:17:59.797Z,46.58
2022-08-10T08:20:03.473Z,46.16
2022-08-10T08:24:04.513Z,45.08
2022-08-10T08:24:30.788Z,44.68
2022-08-10T08:26:34.804Z,43.94
2022-08-10T08:28:37.173Z,44.20
2022-08-10T08:30:40.189Z,44.34
2022-08-10T08:33:20.128Z,44.47
2022-08-10T08:35:35.407Z,44.35
2022-08-10T08:38:29.655Z,44.40
2022-08-10T08:40:03.214Z,43.74
2022-08-10T08:42:05.461Z,42.64
2022-08-10T08:44:14.931Z,42.05
2022-08-10T08:46:33.387Z,41.35
2022-08-10T08:50:09.183Z,41.57
2022-08-10T08:52:07.391Z,43.25
2022-08-10T08:54:33.030Z,43.19
2022-08-10T08:57:00.077Z,42.01
2022-08-10T08:59:35.700Z,41.53
2022-08-10T09:02:01.824Z,41.80
2022-08-10T09:04:42.261Z,41.44
2022-08-10T09:07:59.296Z,41.71
2022-08-10T09:09:51.145Z,43.04
2022-08-10T09:12:38.809Z,43.65
2022-08-10T09:14:52.092Z,42.44
2022-08-10T09:16:59.805Z,42.10
2022-08-10T09:19:19.678Z,42.68
2022-08-10T09:22:17.422Z,42.34
2022-08-10T09:24:37.046Z,41.89
2022-08-10T09:26:41.895Z,40.94
2022-08-10T09:28:43.987Z,40.66
2022-08-10T09:31:23.418Z,40.42
2022-08-10T09:36:25.567Z,40.51
2022-08-10T09:36:32.400Z,39.87
2022-08-10T09:39:10.091Z,39.74
2022-08-10T09:41:13.991Z,39.74
2022-08-10T09:43:25.330Z,39.30
2022-08-10T09:46:06.491Z,39.87
2022-08-10T09:48:14.025Z,39.60
2022-08-10T09:51:16.431Z,39.38
2022-08-10T09:53:22.564Z,38.94
2022-08-10T09:56:18.047Z,39.34
2022-08-10T09:58:36.099Z,39.66
2022-08-10T10:00:47.897Z,39.65
2022-08-10T10:03:11.792Z,40.19
2022-08-10T10:05:24.920Z,39.62
2022-08-10T10:07:27.923Z,39.63
2022-08-10T10:09:37.617Z,39.22
2022-08-10T10:11:53.408Z,38.81
2022-08-10T10:14:22.586Z,39.12
2022-08-10T10:16:48.231Z,38.88
2022-08-10T10:18:59.388Z,38.72
2022-08-10T10:21:54.967Z,38.81
2022-08-10T10:24:21.291Z,38.75
2022-08-10T10:26:49.299Z,37.86
2022-08-10T10:29:37.708Z,37.74
2022-08-10T10:31:39.957Z,37.24
2022-08-10T10:34:00.281Z,37.54
2022-08-10T10:36:02.844Z,38.41
2022-08-10T10:38:10.535Z,38.86
2022-08-10T10:40:14.932Z,38.87
2022-08-10T10:42:46.035Z,39.15
2022-08-10T10:45:20.457Z,38.98
2022-08-10T10:47:52.208Z,39.08
2022-08-10T10:50:10.994Z,40.12
2022-08-10T10:52:27.074Z,39.96
2022-08-10T10:54:39.571Z,41.30
2022-08-10T10:56:58.288Z,41.21
2022-08-10T10:59:56.475Z,40.60
2022-08-10T11:01:43.964Z,40.41
2022-08-10T11:04:02.530Z,40.96
2022-08-10T11:06:40.632Z,40.58
2022-08-10T11:08:47.191Z,41.42
2022-08-10T11:11:59.860Z,41.45
2022-08-10T11:14:27.565Z,40.60
2022-08-10T11:16:44.968Z,39.79
2022-08-10T11:19:10.920Z,40.17
2022-08-10T11:21:32.495Z,40.32
2022-08-10T11:24:43.007Z,39.80
2022-08-10T11:26:26.346Z,39.70
2022-08-10T11:28:36.952Z,40.03
2022-08-10T11:30:48.157Z,39.26
2022-08-10T11:32:58.895Z,39.41
2022-08-10T11:35:13.084Z,39.56
2022-08-10T11:38:34.264Z,40.25
2022-08-10T11:40:07.234Z,40.92
2022-08-10T11:42:40.128Z,41.35
2022-08-10T11:44:54.922Z,41.81
2022-08-10T11:47:08.399Z,41.50
2022-08-10T11:49:13.704Z,41.30
2022-08-10T11:51:46.365Z,41.20
2022-08-10T11:53:57.893Z,41.14
2022-08-10T11:56:00.432Z,40.91
2022-08-10T11:58:41.715Z,40.18
2022-08-10T12:00:43.428Z,41.16
2022-08-10T12:02:50.377Z,41.56
2022-08-10T12:05:09.728Z,41.69
2022-08-10T12:08:54.647Z,42.14
2022-08-10T12:10:09.248Z,42.26
2022-08-10T12:12:01.044Z,41.38
2022-08-10T12:14:23.475Z,41.47
2022-08-10T12:16:27.383Z,42.59
2022-08-10T12:18:47.364Z,43.18
2022-08-10T12:20:54.122Z,43.97
2022-08-10T12:22:57.241Z,43.86
2022-08-10T12:25:03.197Z,43.80
2022-08-10T12:27:24.431Z,44.82
2022-08-10T12:29:42.218Z,45.60
2022-08-10T12:31:54.785Z,46.26
2022-08-10T12:34:20.412Z,47.88
2022-08-10T12:36:36.737Z,47.80
2022-08-10T12:38:53.235Z,47.06
2022-08-10T12:41:00.410Z,46.91
2022-08-10T12:44:04.557Z,47.63
2022-08-10T12:45:44.011Z,47.90
2022-08-10T12:48:00.270Z,47.69
2022-08-10T12:50:30.533Z,47.70
2022-08-10T12:52:40.265Z,47.71
2022-08-10T12:54:43.363Z,47.57
2022-08-10T12:57:00.301Z,47.73
2022-08-10T12:59:05.693Z,47.40
2022-08-10T13:01:17.124Z,47.12
2022-08-10T13:04:21.633Z,46.60
2022-08-10T13:06:02.559Z,46.17
2022-08-10T13:08:27.884Z,45.68
2022-08-10T13:10:30.320Z,45.83
2022-08-10T13:12:40.102Z,46.02
2022-08-10T13:15:49.183Z,45.85
2022-08-10T13:17:56.059Z,45.85
2022-08-10T13:20:08.173Z,45.98
2022-08-10T13:22:16.187Z,45.85
2022-08-10T13:24:28.061Z,45.19
2022-08-10T13:26:31.274Z,45.08
2022-08-10T13:28:39.573Z,44.59
2022-08-10T13:30:43.600Z,44.14
2022-08-10T13:32:53.307Z,43.52
2022-08-10T13:34:58.327Z,43.38
2022-08-10T13:37:02.581Z,43.35
2022-08-10T13:39:06.601Z,43.29
2022-08-10T13:41:09.160Z,43.25
2022-08-10T13:43:11.780Z,43.07
2022-08-10T13:45:16.843Z,43.16
2022-08-10T13:47:20.543Z,43.54
2022-08-10T13:49:23.278Z,43.29
2022-08-10T13:51:57.069Z,43.25
2022-08-10T13:53:52.129Z,43.15
2022-08-10T13:55:56.380Z,42.74
2022-08-10T13:58:00.657Z,42.32
2022-08-10T14:00:34.256Z,42.44
2022-08-10T14:02:41.211Z,42.00
2022-08-10T14:04:46.722Z,42.20
2022-08-10T14:06:53.420Z,41.69
2022-08-10T14:08:58.784Z,41.73
2022-08-10T14:11:11.537Z,41.95
2022-08-10T14:13:17.837Z,41.95
2022-08-10T14:15:26.790Z,41.89
2022-08-10T14:17:28.663Z,41.70
2022-08-10T14:19:32.988Z,42.42
2022-08-10T14:21:39.632Z,42.31
2022-08-10T14:23:53.072Z,42.51
2022-08-10T14:26:08.760Z,42.67
2022-08-10T14:28:11.485Z,42.75
2022-08-10T14:30:17.037Z,43.00
2022-08-10T14:32:22.414Z,43.23
2022-08-10T14:36:14.730Z,43.33
2022-08-10T14:37:00.285Z,42.10
2022-08-10T14:39:03.003Z,41.35
2022-08-10T14:42:01.085Z,41.87
2022-08-10T14:43:41.938Z,43.77
2022-08-10T14:45:46.569Z,44.65
2022-08-10T14:47:59.521Z,45.12
2022-08-10T14:50:04.087Z,46.80
2022-08-10T14:52:07.516Z,47.56
2022-08-10T14:54:15.896Z,49.01
2022-08-10T14:56:29.491Z,49.80
2022-08-10T14:58:36.134Z,50.40
2022-08-10T15:00:43.045Z,50.61
2022-08-10T15:02:53.034Z,51.30
2022-08-10T15:04:58.149Z,51.94
2022-08-10T15:07:22.224Z,52.35
2022-08-10T15:09:25.733Z,52.50
2022-08-10T15:12:15.901Z,52.99
2022-08-10T15:14:12.293Z,53.75
2022-08-10T15:16:14.015Z,54.75
2022-08-10T15:18:15.867Z,55.21
2022-08-10T15:20:21.339Z,55.25
2022-08-10T15:22:37.105Z,55.60
2022-08-10T15:25:25.160Z,56.04
2022-08-10T15:27:29.107Z,55.72
2022-08-10T15:29:31.821Z,56.48
2022-08-10T15:31:35.220Z,56.55
2022-08-10T15:34:07.892Z,57.23
2022-08-10T15:36:34.676Z,57.50
2022-08-10T15:38:41.204Z,58.11
2022-08-10T15:40:52.162Z,58.02
2022-08-10T15:43:24.523Z,58.07
2022-08-10T15:45:27.893Z,58.36
2022-08-10T15:47:45.910Z,58.69
2022-08-10T15:49:55.039Z,58.87
2022-08-10T15:52:39.047Z,58.57
2022-08-10T15:54:44.764Z,58.45
2022-08-10T15:57:01.509Z,58.28
2022-08-10T15:59:16.531Z,58.53
2022-08-10T16:02:04.087Z,58.30
2022-08-10T16:04:08.462Z,57.72
2022-08-10T16:06:24.375Z,58.59
2022-08-10T16:08:29.267Z,57.73
2022-08-10T16:10:38.680Z,57.94
2022-08-10T16:13:50.720Z,57.59
2022-08-10T16:15:31.679Z,57.83
2022-08-10T16:17:33.335Z,58.46
2022-08-10T16:19:57.425Z,57.86
2022-08-10T16:22:35.928Z,58.59
2022-08-10T16:24:30.685Z,58.04
2022-08-10T16:26:37.791Z,58.18
2022-08-10T16:28:43.777Z,57.69
2022-08-10T16:30:49.324Z,58.12
2022-08-10T16:32:52.691Z,58.10
2022-08-10T16:34:55.567Z,57.60
2022-08-10T16:37:06.142Z,57.62
2022-08-10T16:39:08.217Z,57.68
2022-08-10T16:42:05.358Z,57.46
2022-08-10T16:43:49.546Z,58.24
2022-08-10T16:45:55.531Z,57.72
2022-08-10T16:47:58.138Z,57.70
2022-08-10T16:50:04.494Z,57.82
2022-08-10T16:52:06.950Z,57.74
2022-08-10T16:54:09.537Z,57.80
2022-08-10T16:56:12.091Z,58.09
2022-08-10T16:58:16.190Z,57.83
2022-08-10T17:00:22.394Z,57.55
2022-08-10T17:02:25.987Z,57.53
2022-08-10T17:04:30.612Z,57.28
2022-08-10T17:06:55.814Z,57.43
2022-08-10T17:09:00.174Z,56.92
2022-08-10T17:11:02.654Z,56.38
2022-08-10T17:13:06.700Z,55.89
2022-08-10T17:15:09.475Z,56.32
2022-08-10T17:17:18.926Z,56.15
2022-08-10T17:19:25.477Z,55.85
2022-08-10T17:21:31.559Z,55.72
2022-08-10T17:23:34.491Z,56.01
2022-08-10T17:25:46.194Z,55.46
2022-08-10T17:28:05.224Z,55.29
2022-08-10T17:30:32.251Z,55.29
2022-08-10T17:32:56.325Z,55.63
2022-08-10T17:35:01.934Z,56.07
2022-08-10T17:37:05.305Z,56.76
2022-08-10T17:39:09.283Z,56.56
2022-08-10T17:41:13.207Z,56.73
2022-08-10T17:43:46.251Z,56.18
2022-08-10T17:45:48.246Z,55.79
2022-08-10T17:47:54.816Z,55.44
2022-08-10T17:49:59.717Z,55.96
2022-08-10T17:52:05.394Z,55.62
2022-08-10T17:54:31.168Z,54.94
2022-08-10T17:56:34.754Z,54.64
2022-08-10T17:58:44.314Z,54.40
2022-08-10T18:00:51.850Z,53.93
2022-08-10T18:02:54.373Z,53.79
2022-08-10T18:04:59.952Z,53.96
2022-08-10T18:07:02.509Z,53.38
2022-08-10T18:09:09.799Z,53.47
2022-08-10T18:11:13.580Z,53.16
2022-08-10T18:13:18.264Z,53.19
2022-08-10T18:15:22.362Z,52.65
2022-08-10T18:17:26.479Z,52.79
2022-08-10T18:19:30.236Z,52.94
2022-08-10T18:21:32.528Z,52.87
2022-08-10T18:23:36.489Z,52.65
2022-08-10T18:25:42.233Z,52.52
2022-08-10T18:27:53.870Z,53.01
2022-08-10T18:30:07.560Z,52.72
2022-08-10T18:32:11.294Z,52.69
2022-08-10T18:34:18.508Z,52.54
2022-08-10T18:36:21.004Z,52.89
2022-08-10T18:38:24.198Z,53.00
2022-08-10T18:40:36.204Z,52.97
2022-08-10T18:42:46.435Z,52.94
2022-08-10T18:44:55.370Z,52.92
2022-08-10T18:47:00.975Z,53.25
2022-08-10T18:49:16.842Z,53.29
2022-08-10T18:51:24.338Z,52.93
2022-08-10T18:53:34.291Z,53.12
2022-08-10T18:55:39.730Z,53.35
2022-08-10T18:58:00.492Z,53.12
2022-08-10T19:00:11.764Z,53.31
2022-08-10T19:02:35.771Z,53.18
2022-08-10T19:05:00.582Z,53.03
2022-08-10T19:07:08.567Z,53.05
2022-08-10T19:09:45.865Z,53.63
2022-08-10T19:12:03.574Z,54.02
2022-08-10T19:14:11.305Z,53.60
2022-08-10T19:16:44.568Z,54.21
2022-08-10T19:18:58.358Z,54.29
2022-08-10T19:21:37.954Z,55.00
2022-08-10T19:23:52.342Z,54.59
2022-08-10T19:26:40.699Z,54.49
2022-08-10T19:28:59.942Z,54.57
2022-08-10T19:31:12.449Z,54.61
2022-08-10T19:33:36.026Z,54.37
2022-08-10T19:36:03.566Z,54.66
2022-08-10T19:38:33.395Z,55.24
2022-08-10T19:40:44.762Z,55.46
2022-08-10T19:44:00.424Z,55.34
2022-08-10T19:46:14.751Z,55.42
2022-08-10T19:48:19.300Z,55.36
2022-08-10T19:50:33.845Z,55.27
2022-08-10T19:52:54.311Z,56.24
2022-08-10T19:55:15.032Z,56.00
2022-08-10T19:57:37.612Z,56.22
2022-08-10T20:00:18.649Z,56.04
2022-08-10T20:02:30.725Z,55.94
2022-08-10T20:04:42.120Z,56.26
2022-08-10T20:07:00.254Z,55.93
2022-08-10T20:09:11.357Z,55.53
2022-08-10T20:11:44.462Z,55.45
2022-08-10T20:14:00.843Z,55.55
2022-08-10T20:16:19.099Z,55.00
2022-08-10T20:18:20.775Z,55.11
2022-08-10T20:20:31.779Z,55.04
2022-08-10T20:22:43.089Z,54.76
2022-08-10T20:25:17.747Z,54.35
2022-08-10T20:27:59.715Z,54.73
2022-08-10T20:29:59.421Z,54.85
2022-08-10T20:32:06.448Z,54.80
2022-08-10T20:34:18.491Z,54.83
2022-08-10T20:36:26.211Z,54.71
2022-08-10T20:38:52.343Z,54.73
2022-08-10T20:41:27.069Z,54.80
2022-08-10T20:43:53.327Z,54.90
2022-08-10T20:46:09.645Z,55.18
2022-08-10T20:48:19.857Z,55.07
2022-08-10T20:50:40.357Z,54.88
2022-08-10T20:52:44.317Z,54.71
2022-08-10T20:54:51.053Z,54.83
2022-08-10T20:57:55.848Z,54.64
2022-08-10T21:00:02.548Z,54.71
2022-08-10T21:02:19.838Z,55.03
2022-08-10T21:04:35.973Z,55.09
2022-08-10T21:06:53.724Z,55.40
2022-08-10T21:09:07.386Z,55.35
2022-08-10T21:11:40.283Z,55.34
2022-08-10T21:13:54.393Z,55.52
2022-08-10T21:16:26.713Z,55.58
2022-08-10T21:18:53.815Z,55.92
2022-08-10T21:21:20.025Z,55.59
2022-08-10T21:23:57.266Z,55.63
2022-08-10T21:26:11.528Z,55.48
2022-08-10T21:28:50.220Z,55.96
2022-08-10T21:31:13.562Z,55.92
2022-08-10T21:33:25.731Z,55.87
2022-08-10T21:35:49.631Z,55.72
2022-08-10T21:38:02.874Z,55.84
2022-08-10T21:40:34.467Z,55.86
2022-08-10T21:43:11.014Z,55.58
2022-08-10T21:45:59.718Z,55.83
2022-08-10T21:48:30.787Z,55.79
2022-08-10T21:50:57.830Z,56.19
2022-08-10T21:53:44.807Z,55.99
2022-08-10T21:56:15.849Z,55.88
2022-08-10T21:58:41.744Z,55.97
2022-08-10T22:01:10.300Z,56.05
2022-08-10T22:03:39.548Z,56.27
2022-08-10T22:06:01.564Z,56.57
2022-08-10T22:08:22.469Z,56.35
2022-08-10T22:10:47.232Z,56.37
2022-08-10T22:13:08.572Z,56.69
2022-08-10T22:16:09.673Z,56.83
2022-08-10T22:18:15.185Z,57.09
2022-08-10T22:20:54.813Z,56.80
2022-08-10T22:23:48.233Z,56.64
2022-08-10T22:26:25.128Z,56.52
2022-08-10T22:28:45.360Z,57.03
2022-08-10T22:31:32.534Z,56.82
2022-08-10T22:33:56.251Z,57.08
2022-08-10T22:36:35.504Z,57.22
2022-08-10T22:40:13.207Z,57.45
2022-08-10T22:42:59.222Z,57.57
2022-08-10T22:45:22.238Z,57.46
2022-08-10T22:47:43.450Z,57.42
2022-08-10T22:49:51.756Z,57.60
2022-08-10T22:51:58.547Z,57.70
2022-08-10T22:54:31.038Z,57.78
2022-08-10T22:56:56.560Z,58.30
2022-08-10T22:58:58.420Z,58.52
2022-08-10T23:01:36.818Z,58.91
2022-08-10T23:03:46.681Z,59.11
2022-08-10T23:05:54.416Z,59.32
2022-08-10T23:08:01.853Z,59.82
2022-08-10T23:10:11.138Z,59.92
2022-08-10T23:12:15.869Z,60.42
2022-08-10T23:14:19.278Z,60.21
2022-08-10T23:16:41.055Z,60.47
2022-08-10T23:19:10.127Z,60.42
2022-08-10T23:21:14.127Z,60.29
2022-08-10T23:23:23.727Z,60.50
2022-08-10T23:25:30.103Z,60.27
2022-08-10T23:27:39.274Z,60.16
2022-08-10T23:30:10.134Z,60.03
2022-08-10T23:32:10.248Z,60.02
2022-08-10T23:34:12.836Z,59.82
2022-08-10T23:36:34.535Z,60.03
2022-08-10T23:38:37.851Z,59.81
2022-08-10T23:40:45.411Z,59.76
2022-08-10T23:42:49.599Z,59.93
2022-08-10T23:44:54.633Z,59.81
2022-08-10T23:47:00.035Z,59.60
2022-08-10T23:49:02.965Z,59.89
2022-08-10T23:51:16.766Z,59.55
2022-08-10T23:53:27.163Z,59.63
2022-08-10T23:55:49.230Z,59.58
2022-08-10T23:57:56.552Z,59.78
